Time;durP1;ratioP1;P1;durP2;ratioP2;P2;SDS_P1;SDS_P2;PMS_P1;PMS_P2;Temp;Humidity;BMP_temperature;BMP_pressure;BME280_temperature;BME280_humidity;BME280_pressure;Samples;Min_cycle;Max_cycle;Signal;HPM_P1;HPM_P2
2021/06/07 00:01:09;;;;;;;39.60;28.15;;;16.50;99.90;;;;;;4974063;28;20122;-74
2021/06/07 00:03:35;;;;;;;45.85;29.83;;;16.40;99.90;;;;;;4973896;28;20033;-75
2021/06/07 00:06:02;;;;;;;45.85;28.67;;;16.40;99.90;;;;;;4974528;28;20019;-74
2021/06/07 00:08:27;;;;;;;40.63;28.52;;;16.40;99.90;;;;;;4974654;28;20027;-74
2021/06/07 00:10:53;;;;;;;36.95;26.30;;;16.40;99.90;;;;;;4973449;28;20038;-73
2021/06/07 00:13:20;;;;;;;47.90;30.52;;;16.40;99.90;;;;;;4974867;28;20034;-73
2021/06/07 00:15:47;;;;;;;41.83;28.88;;;16.50;99.90;;;;;;4974894;28;20027;-75
2021/06/07 00:18:13;;;;;;;48.28;29.40;;;16.40;99.90;;;;;;4974647;28;20030;-77
2021/06/07 00:20:43;;;;;;;48.95;32.38;;;16.40;99.90;;;;;;4956397;28;20185;-76
2021/06/07 00:23:10;;;;;;;50.53;32.47;;;16.50;99.90;;;;;;4974459;28;20023;-74
2021/06/07 00:25:38;;;;;;;50.40;32.80;;;16.50;99.90;;;;;;4974289;28;20497;-74
2021/06/07 00:28:04;;;;;;;47.95;30.70;;;16.50;99.90;;;;;;4956817;28;20023;-74
2021/06/07 00:30:30;;;;;;;46.72;30.70;;;16.40;99.90;;;;;;4973537;28;20034;-74
2021/06/07 00:32:56;;;;;;;42.58;29.13;;;16.40;99.90;;;;;;4974142;28;20031;-74
2021/06/07 00:35:23;;;;;;;47.17;30.70;;;16.40;99.90;;;;;;4974111;28;20034;-75
2021/06/07 00:37:50;;;;;;;46.67;31.20;;;16.40;99.90;;;;;;4974080;28;20026;-74
2021/06/07 00:40:16;;;;;;;49.33;31.98;;;16.40;99.90;;;;;;4973328;28;20450;-73
2021/06/07 00:42:42;;;;;;;60.63;35.20;;;16.40;99.90;;;;;;4973699;28;20490;-74
2021/06/07 00:45:14;;;;;;;54.85;35.67;;;16.50;99.90;;;;;;4973808;28;20524;-75
2021/06/07 00:47:40;;;;;;;60.80;35.70;;;16.40;99.90;;;;;;4956558;28;20031;-74
2021/06/07 00:50:12;;;;;;;56.47;33.90;;;16.50;99.90;;;;;;4955772;28;20038;-74
2021/06/07 00:53:00;;;;;;;52.30;33.17;;;16.40;99.90;;;;;;4973640;28;20026;-74
2021/06/07 00:55:27;;;;;;;51.50;33.83;;;16.40;99.90;;;;;;4956528;28;20034;-74
2021/06/07 00:57:54;;;;;;;51.85;34.30;;;16.30;99.90;;;;;;4973274;28;20358;-75
2021/06/07 01:00:21;;;;;;;50.25;31.92;;;16.40;99.90;;;;;;4973179;28;20027;-74
2021/06/07 01:02:47;;;;;;;49.13;33.05;;;16.40;99.90;;;;;;4973359;28;20451;-74
2021/06/07 01:05:13;;;;;;;52.85;33.00;;;16.40;99.90;;;;;;4973571;28;20035;-75
2021/06/07 01:07:39;;;;;;;56.42;33.15;;;16.30;99.90;;;;;;4973547;28;20037;-74
2021/06/07 01:10:06;;;;;;;46.13;31.75;;;16.30;99.90;;;;;;4955567;28;20186;-74
2021/06/07 01:12:32;;;;;;;48.47;31.38;;;16.20;99.90;;;;;;4973729;28;20035;-74
2021/06/07 01:14:58;;;;;;;46.65;29.30;;;16.20;99.90;;;;;;4971784;28;20030;-74
2021/06/07 01:17:26;;;;;;;53.75;32.33;;;16.30;99.90;;;;;;4973095;28;20097;-74
2021/06/07 01:19:53;;;;;;;48.45;32.00;;;16.30;99.90;;;;;;4972616;28;20073;-74
2021/06/07 01:22:19;;;;;;;49.22;32.13;;;16.40;99.90;;;;;;4973099;28;20026;-75
2021/06/07 01:24:44;;;;;;;48.92;31.42;;;16.20;99.90;;;;;;4972791;28;20035;-74
2021/06/07 01:27:10;;;;;;;49.78;31.42;;;16.20;99.90;;;;;;4973150;28;20027;-74
2021/06/07 01:29:36;;;;;;;44.97;30.48;;;16.20;99.90;;;;;;4955119;28;20082;-75
2021/06/07 01:32:02;;;;;;;46.88;31.27;;;16.20;99.90;;;;;;4972845;28;20392;-74
2021/06/07 01:34:28;;;;;;;48.47;30.63;;;16.30;99.90;;;;;;4973234;28;20031;-75
2021/06/07 01:36:53;;;;;;;44.90;29.33;;;16.10;99.90;;;;;;4973056;28;20469;-75
2021/06/07 01:39:20;;;;;;;45.20;29.70;;;16.10;99.90;;;;;;4972804;28;20034;-74
2021/06/07 01:41:46;;;;;;;43.38;28.83;;;16.10;99.90;;;;;;4972673;28;20026;-73
2021/06/07 01:44:12;;;;;;;50.13;29.63;;;16.10;99.90;;;;;;4956351;28;20548;-73
2021/06/07 01:46:37;;;;;;;49.45;31.73;;;16.10;99.90;;;;;;4978188;28;20038;-75
2021/06/07 01:49:03;;;;;;;51.63;31.30;;;16.10;99.90;;;;;;4960207;28;20485;-74
2021/06/07 01:51:29;;;;;;;45.83;29.55;;;16.10;99.90;;;;;;4972720;28;20062;-73
2021/06/07 01:53:56;;;;;;;47.53;28.83;;;16.00;99.90;;;;;;4993953;28;20043;-73
2021/06/07 01:56:22;;;;;;;47.35;31.40;;;16.00;99.90;;;;;;4976441;28;20576;-74
2021/06/07 01:58:47;;;;;;;47.85;30.00;;;16.00;99.90;;;;;;4976526;28;20066;-74
2021/06/07 02:01:18;;;;;;;48.47;28.50;;;16.00;99.90;;;;;;4972090;28;20046;-74
2021/06/07 02:03:44;;;;;;;43.80;27.52;;;16.00;99.90;;;;;;4972322;28;20027;-74
2021/06/07 02:06:12;;;;;;;47.78;30.08;;;16.00;99.90;;;;;;4972476;28;20034;-74
2021/06/07 02:08:38;;;;;;;43.92;29.27;;;16.00;99.90;;;;;;4972370;28;20023;-73
2021/06/07 02:11:18;;;;;;;51.42;28.95;;;15.90;99.90;;;;;;4971776;28;20058;-73
2021/06/07 02:13:49;;;;;;;44.88;30.13;;;16.00;99.90;;;;;;4955012;28;20489;-74
2021/06/07 02:16:21;;;;;;;47.17;28.45;;;15.90;99.90;;;;;;4954844;28;20038;-74
2021/06/07 02:18:46;;;;;;;;;;;16.00;99.90;;;;;;4955495;28;20114;-74
2021/06/07 02:21:16;;;;;;;49.28;29.48;;;15.90;99.90;;;;;;4971341;28;20035;-73
2021/06/07 02:23:41;;;;;;;47.80;29.90;;;16.00;99.90;;;;;;4972300;28;20101;-75
2021/06/07 02:26:08;;;;;;;48.60;29.60;;;16.00;99.90;;;;;;4972512;28;20474;-74
2021/06/07 02:28:34;;;;;;;44.85;28.65;;;16.00;99.90;;;;;;4975236;28;20096;-74
2021/06/07 02:31:00;;;;;;;44.40;28.20;;;16.00;99.90;;;;;;4975734;28;20478;-75
2021/06/07 02:33:27;;;;;;;55.63;30.92;;;16.10;99.90;;;;;;4976502;28;20034;-74
2021/06/07 02:35:52;;;;;;;46.08;28.83;;;16.10;99.90;;;;;;4975989;28;20034;-74
2021/06/07 02:38:18;;;;;;;48.13;30.08;;;15.90;99.90;;;;;;4976290;28;20023;-74
2021/06/07 02:40:47;;;;;;;50.10;29.08;;;15.80;99.90;;;;;;4957985;28;20059;-74
2021/06/07 02:43:14;;;;;;;48.17;28.20;;;15.80;99.90;;;;;;4975956;28;20027;-74
2021/06/07 02:45:39;;;;;;;50.60;30.23;;;15.90;99.90;;;;;;4958570;28;20023;-75
2021/06/07 02:48:05;;;;;;;54.67;31.55;;;16.00;99.90;;;;;;4974849;28;20449;-75
2021/06/07 02:50:34;;;;;;;55.90;31.63;;;16.10;99.90;;;;;;4975442;28;20030;-75
2021/06/07 02:53:00;;;;;;;53.03;30.65;;;16.00;99.90;;;;;;4975676;28;20027;-73
2021/06/07 02:55:28;;;;;;;49.78;29.88;;;16.00;99.90;;;;;;4974513;28;20447;-73
2021/06/07 02:57:55;;;;;;;48.53;29.67;;;16.00;99.90;;;;;;4975687;28;20106;-74
2021/06/07 03:00:29;;;;;;;50.00;30.02;;;15.90;99.90;;;;;;4975218;28;20034;-75
2021/06/07 03:02:56;;;;;;;51.50;30.75;;;15.80;99.90;;;;;;4975727;28;20058;-74
2021/06/07 03:05:23;;;;;;;58.08;32.08;;;15.70;99.90;;;;;;4975600;28;20019;-75
2021/06/07 03:07:48;;;;;;;52.13;29.88;;;15.70;99.90;;;;;;4975397;28;20038;-75
2021/06/07 03:10:14;;;;;;;48.90;28.77;;;15.70;99.90;;;;;;4973674;28;20031;-74
2021/06/07 03:12:40;;;;;;;56.15;31.58;;;15.70;99.90;;;;;;4959371;28;20478;-74
2021/06/07 03:15:08;;;;;;;48.88;29.10;;;15.80;99.90;;;;;;4956257;29;20055;-75
2021/06/07 03:17:34;;;;;;;54.55;31.15;;;15.80;99.90;;;;;;4956162;29;20030;-75
2021/06/07 03:20:00;;;;;;;56.80;33.65;;;15.80;99.90;;;;;;4955434;29;20402;-74
2021/06/07 03:22:26;;;;;;;55.85;32.40;;;15.80;99.90;;;;;;4956092;28;20050;-75
2021/06/07 03:24:52;;;;;;;51.47;30.52;;;15.80;99.90;;;;;;4956023;29;20422;-76
2021/06/07 03:27:18;;;;;;;52.08;29.67;;;15.80;99.90;;;;;;4955788;29;20034;-74
2021/06/07 03:29:46;;;;;;;47.80;30.38;;;15.80;99.90;;;;;;4954299;29;20404;-75
2021/06/07 03:32:13;;;;;;;49.05;29.58;;;15.90;99.90;;;;;;4955847;28;20047;-76
2021/06/07 03:34:39;;;;;;;51.35;29.58;;;15.90;99.90;;;;;;4954910;29;20030;-74
2021/06/07 03:37:05;;;;;;;55.10;32.40;;;16.00;99.90;;;;;;4956290;29;20115;-74
2021/06/07 03:39:32;;;;;;;59.50;33.28;;;15.90;99.90;;;;;;4954017;28;20509;-74
2021/06/07 03:41:58;;;;;;;55.05;31.70;;;15.90;99.90;;;;;;4965757;28;20098;-75
2021/06/07 03:44:23;;;;;;;64.68;34.72;;;16.00;99.90;;;;;;4974969;28;20041;-73
2021/06/07 03:46:49;;;;;;;72.05;38.70;;;16.00;99.90;;;;;;4974879;28;20031;-74
2021/06/07 03:49:15;;;;;;;56.33;32.75;;;16.10;99.90;;;;;;4975031;28;20543;-75
2021/06/07 03:51:41;;;;;;;54.17;33.13;;;16.00;99.90;;;;;;4974128;28;20065;-74
2021/06/07 03:54:07;;;;;;;62.00;35.58;;;15.90;99.90;;;;;;4957578;28;20082;-73
2021/06/07 03:56:33;;;;;;;52.92;30.17;;;15.90;99.90;;;;;;4973257;28;20030;-73
2021/06/07 03:58:59;;;;;;;56.63;32.08;;;15.80;99.90;;;;;;4957318;28;20023;-74
2021/06/07 04:01:24;;;;;;;58.97;34.03;;;15.90;99.90;;;;;;4974171;28;20034;-75
2021/06/07 04:03:50;;;;;;;52.28;32.20;;;15.80;99.90;;;;;;4956908;28;20523;-74
2021/06/07 04:06:16;;;;;;;58.08;32.40;;;15.80;99.90;;;;;;4974698;28;20027;-74
2021/06/07 04:08:43;;;;;;;51.58;32.45;;;15.70;99.90;;;;;;4974666;28;20018;-73
2021/06/07 04:11:10;;;;;;;61.17;34.25;;;15.70;99.90;;;;;;4973672;28;20022;-73
2021/06/07 04:13:37;;;;;;;57.47;31.80;;;15.80;99.90;;;;;;4974255;28;20070;-73
2021/06/07 04:16:03;;;;;;;57.15;34.03;;;15.90;99.90;;;;;;4967829;28;20483;-74
2021/06/07 04:18:28;;;;;;;57.30;32.55;;;15.90;99.90;;;;;;4972904;28;20026;-74
2021/06/07 04:20:54;;;;;;;57.85;34.08;;;15.90;99.90;;;;;;4955671;28;20495;-73
2021/06/07 04:23:21;;;;;;;54.38;32.92;;;16.00;99.90;;;;;;4973807;28;20042;-74
2021/06/07 04:25:47;;;;;;;50.33;30.13;;;16.00;99.90;;;;;;4974127;28;20026;-74
2021/06/07 04:28:13;;;;;;;50.00;29.73;;;15.90;99.90;;;;;;4973438;28;20027;-74
2021/06/07 04:30:39;;;;;;;45.95;29.42;;;15.90;99.90;;;;;;4955755;28;20018;-74
2021/06/07 04:33:05;;;;;;;52.38;31.10;;;16.00;99.90;;;;;;4973710;28;20042;-74
2021/06/07 04:35:31;;;;;;;48.28;29.65;;;16.00;99.90;;;;;;4973992;28;20478;-74
2021/06/07 04:37:57;;;;;;;57.97;32.05;;;16.00;99.90;;;;;;4973462;28;20026;-73
2021/06/07 04:40:35;;;;;;;51.17;30.38;;;16.20;99.90;;;;;;4973339;28;20037;-74
2021/06/07 04:43:05;;;;;;;50.03;30.02;;;16.20;99.90;;;;;;4973198;28;20034;-74
2021/06/07 04:45:31;;;;;;;51.42;31.92;;;16.00;99.90;;;;;;4973508;28;20049;-74
2021/06/07 04:47:58;;;;;;;45.53;29.02;;;15.70;99.90;;;;;;4973015;28;20091;-73
2021/06/07 04:50:26;;;;;;;50.63;28.65;;;15.70;99.90;;;;;;4972560;28;20049;-74
2021/06/07 04:53:00;;;;;;;45.03;27.42;;;15.80;99.90;;;;;;4973151;28;20097;-75
2021/06/07 04:55:33;;;;;;;45.33;28.15;;;16.00;99.90;;;;;;4973382;28;20129;-75
2021/06/07 04:58:01;;;;;;;47.17;26.90;;;16.00;99.90;;;;;;4972678;28;20041;-75
2021/06/07 05:00:27;;;;;;;46.00;27.83;;;16.20;99.90;;;;;;4972514;28;20133;-74
2021/06/07 05:02:54;;;;;;;44.47;27.48;;;16.10;99.90;;;;;;4973342;28;20026;-75
2021/06/07 05:05:20;;;;;;;45.67;26.63;;;16.20;99.90;;;;;;4973485;28;20027;-74
2021/06/07 05:07:46;;;;;;;39.78;25.67;;;16.10;99.90;;;;;;4955893;28;20031;-75
2021/06/07 05:10:12;;;;;;;38.83;26.20;;;16.20;99.90;;;;;;4969307;28;20450;-74
2021/06/07 05:12:38;;;;;;;39.42;25.65;;;16.30;99.90;;;;;;4972140;28;20045;-74
2021/06/07 05:15:07;;;;;;;36.50;24.38;;;16.30;99.90;;;;;;4948768;29;20122;-75
2021/06/07 05:17:32;;;;;;;41.13;25.85;;;16.20;99.90;;;;;;4954203;29;20486;-74
2021/06/07 05:19:58;;;;;;;44.58;28.42;;;16.10;99.90;;;;;;4963988;28;20070;-75
2021/06/07 05:22:24;;;;;;;43.20;26.77;;;16.30;99.90;;;;;;4973124;28;20527;-75
2021/06/07 05:24:49;;;;;;;43.42;26.80;;;16.20;99.90;;;;;;4973482;28;20382;-75
2021/06/07 05:27:15;;;;;;;42.72;27.25;;;16.20;99.90;;;;;;4972703;28;20105;-75
2021/06/07 05:29:41;;;;;;;45.38;27.08;;;16.30;99.90;;;;;;4972379;28;20099;-75
2021/06/07 05:32:07;;;;;;;45.30;27.30;;;16.20;99.90;;;;;;4955709;28;20065;-73
2021/06/07 05:34:32;;;;;;;42.63;26.52;;;16.20;99.90;;;;;;4972957;28;20437;-74
2021/06/07 05:36:58;;;;;;;37.58;23.70;;;16.30;99.90;;;;;;4969936;28;20046;-74
2021/06/07 05:39:24;;;;;;;40.53;25.52;;;16.30;99.90;;;;;;4972197;28;20541;-74
2021/06/07 05:41:50;;;;;;;38.45;24.17;;;16.20;99.90;;;;;;4972451;28;20527;-75
2021/06/07 05:44:15;;;;;;;36.63;24.65;;;16.10;99.90;;;;;;4973486;28;20023;-73
2021/06/07 05:46:41;;;;;;;39.15;24.70;;;15.90;99.90;;;;;;4973012;28;20099;-75
2021/06/07 05:49:07;;;;;;;33.88;22.25;;;15.90;99.90;;;;;;4972447;28;20027;-74
2021/06/07 05:51:33;;;;;;;35.85;23.70;;;16.00;99.90;;;;;;4971925;28;20038;-73
2021/06/07 05:53:59;;;;;;;38.13;24.25;;;16.00;99.90;;;;;;4972685;28;20101;-74
2021/06/07 05:56:25;;;;;;;34.83;23.55;;;15.90;99.90;;;;;;4972859;28;20030;-73
2021/06/07 05:58:56;;;;;;;33.50;23.48;;;16.00;99.90;;;;;;4973065;28;20034;-73
2021/06/07 06:01:23;;;;;;;37.80;24.25;;;16.00;99.90;;;;;;4971511;28;20023;-73
2021/06/07 06:03:49;;;;;;;35.92;23.33;;;16.00;99.90;;;;;;4971514;28;20393;-77
2021/06/07 06:06:14;;;;;;;40.03;24.60;;;16.00;99.90;;;;;;4972442;28;20023;-73
2021/06/07 06:08:40;;;;;;;40.67;24.73;;;16.10;99.90;;;;;;4972629;28;20023;-76
2021/06/07 06:11:06;;;;;;;44.65;26.75;;;16.20;99.90;;;;;;4966557;28;20122;-78
2021/06/07 06:13:32;;;;;;;34.55;22.50;;;16.50;99.90;;;;;;4973173;28;20096;-73
2021/06/07 06:15:57;;;;;;;37.72;23.00;;;16.30;99.90;;;;;;4955177;28;20027;-73
2021/06/07 06:18:23;;;;;;;33.70;21.67;;;16.20;99.90;;;;;;4972510;28;20114;-75
2021/06/07 06:20:48;;;;;;;32.38;21.10;;;16.30;99.90;;;;;;4971814;28;20031;-74
2021/06/07 06:23:14;;;;;;;37.80;21.77;;;16.40;99.90;;;;;;4972644;28;20065;-74
2021/06/07 06:25:40;;;;;;;31.85;20.48;;;16.40;99.90;;;;;;4969754;28;20027;-74
2021/06/07 06:28:05;;;;;;;36.42;21.65;;;16.30;99.90;;;;;;4970547;28;20027;-74
2021/06/07 06:30:31;;;;;;;32.38;20.45;;;16.30;99.90;;;;;;4953774;28;20453;-75
2021/06/07 06:32:59;;;;;;;35.17;22.80;;;16.40;99.90;;;;;;4954029;28;20073;-73
2021/06/07 06:35:25;;;;;;;28.05;19.52;;;16.60;99.90;;;;;;4971997;28;20492;-72
2021/06/07 06:37:51;;;;;;;26.85;19.10;;;16.60;99.90;;;;;;4971967;28;20035;-73
2021/06/07 06:40:29;;;;;;;25.10;16.67;;;16.90;99.90;;;;;;4971593;28;20090;-72
2021/06/07 06:42:56;;;;;;;26.50;18.05;;;17.00;99.90;;;;;;4972278;28;20027;-72
2021/06/07 06:45:22;;;;;;;26.65;17.92;;;16.90;99.90;;;;;;4971962;28;20026;-75
2021/06/07 06:47:55;;;;;;;31.30;19.50;;;16.90;99.90;;;;;;4972706;28;20034;-75
2021/06/07 06:50:21;;;;;;;26.17;19.00;;;17.00;99.90;;;;;;4972063;28;20588;-75
2021/06/07 06:52:46;;;;;;;29.02;20.30;;;16.90;99.90;;;;;;4973592;28;20089;-74
2021/06/07 06:55:12;;;;;;;26.63;18.73;;;17.00;99.90;;;;;;4972634;28;20023;-76
2021/06/07 06:57:38;;;;;;;29.95;19.23;;;16.90;99.90;;;;;;4972522;28;20504;-75
2021/06/07 07:00:07;;;;;;;25.95;17.60;;;16.80;99.90;;;;;;4971994;28;20495;-74
2021/06/07 07:02:33;;;;;;;25.63;18.88;;;16.90;99.90;;;;;;4971032;28;20152;-75
2021/06/07 07:04:59;;;;;;;30.30;20.88;;;16.80;99.90;;;;;;4955762;28;20564;-75
2021/06/07 07:07:25;;;;;;;26.33;17.50;;;16.90;99.90;;;;;;4981047;28;20081;-74
2021/06/07 07:09:50;;;;;;;23.77;17.58;;;16.90;99.90;;;;;;4969127;28;20070;-74
2021/06/07 07:12:16;;;;;;;23.95;17.55;;;16.70;99.90;;;;;;4972208;28;20043;-74
2021/06/07 07:14:42;;;;;;;21.17;16.40;;;16.70;99.90;;;;;;4975287;28;20066;-74
2021/06/07 07:17:08;;;;;;;22.90;15.50;;;16.70;99.90;;;;;;4958804;28;20056;-74
2021/06/07 07:19:34;;;;;;;20.42;15.23;;;16.60;99.90;;;;;;4975816;28;20508;-76
2021/06/07 07:22:01;;;;;;;22.63;14.85;;;16.60;99.90;;;;;;4975514;28;20041;-74
2021/06/07 07:24:28;;;;;;;24.20;16.23;;;16.60;99.90;;;;;;4956701;28;20413;-75
2021/06/07 07:26:55;;;;;;;21.38;15.23;;;16.70;99.90;;;;;;4974266;28;20027;-75
2021/06/07 07:29:21;;;;;;;24.10;15.88;;;16.60;99.90;;;;;;4975097;28;20034;-75
2021/06/07 07:31:47;;;;;;;21.63;16.00;;;16.50;99.90;;;;;;4975984;28;20038;-76
2021/06/07 07:34:12;;;;;;;21.13;16.25;;;16.40;99.90;;;;;;4976020;28;20026;-76
2021/06/07 07:36:38;;;;;;;20.35;15.02;;;16.50;99.90;;;;;;4958497;28;20023;-76
2021/06/07 07:39:04;;;;;;;19.33;14.70;;;16.60;99.90;;;;;;4976142;28;20521;-74
2021/06/07 07:41:30;;;;;;;21.38;15.00;;;16.60;99.90;;;;;;4974776;28;20030;-73
2021/06/07 07:43:56;;;;;;;15.13;12.07;;;16.60;99.90;;;;;;4975246;28;20038;-76
2021/06/07 07:46:22;;;;;;;17.52;14.05;;;16.60;99.90;;;;;;4975502;28;20031;-75
2021/06/07 07:48:47;;;;;;;15.45;12.32;;;16.90;99.90;;;;;;4974116;28;20031;-75
2021/06/07 07:51:13;;;;;;;13.52;11.25;;;16.80;99.90;;;;;;4975453;28;20023;-74
2021/06/07 07:53:39;;;;;;;18.95;13.63;;;16.90;99.90;;;;;;4975447;28;20023;-75
2021/06/07 07:56:06;;;;;;;15.55;12.00;;;17.10;99.90;;;;;;4974751;28;20037;-76
2021/06/07 07:58:32;;;;;;;15.32;11.43;;;17.20;99.90;;;;;;4975203;28;20023;-74
2021/06/07 08:00:57;;;;;;;12.77;9.48;;;17.20;99.90;;;;;;4974152;28;20389;-74
2021/06/07 08:03:23;;;;;;;15.00;11.30;;;17.20;99.90;;;;;;4974685;28;20033;-74
2021/06/07 08:05:49;;;;;;;13.10;10.63;;;17.30;99.90;;;;;;4974690;28;20377;-74
2021/06/07 08:08:15;;;;;;;16.02;11.40;;;17.20;99.90;;;;;;4974889;28;20062;-74
2021/06/07 08:10:40;;;;;;;14.93;11.93;;;17.30;99.90;;;;;;4974585;28;20027;-72
2021/06/07 08:13:06;;;;;;;13.00;10.82;;;17.50;99.90;;;;;;4975178;28;20038;-74
2021/06/07 08:15:35;;;;;;;15.82;11.85;;;17.30;99.90;;;;;;4975260;28;20089;-74
2021/06/07 08:18:02;;;;;;;14.23;11.27;;;17.00;99.90;;;;;;4975576;28;20034;-75
2021/06/07 08:20:29;;;;;;;15.40;12.48;;;16.90;99.90;;;;;;4957598;28;20039;-74
2021/06/07 08:22:55;;;;;;;16.45;11.30;;;17.00;99.90;;;;;;4957361;28;20036;-75
2021/06/07 08:25:23;;;;;;;13.98;11.43;;;17.10;99.90;;;;;;4974528;28;20470;-73
2021/06/07 08:27:52;;;;;;;13.38;11.07;;;17.20;99.90;;;;;;4974834;28;20544;-75
2021/06/07 08:30:19;;;;;;;17.05;13.48;;;17.40;99.90;;;;;;4957215;28;20168;-74
2021/06/07 08:32:45;;;;;;;17.63;13.88;;;17.30;99.90;;;;;;4957406;28;20086;-74
2021/06/07 08:35:11;;;;;;;18.70;14.05;;;17.30;99.90;;;;;;4975188;28;20022;-75
2021/06/07 08:37:38;;;;;;;16.38;13.13;;;17.40;99.90;;;;;;4975052;28;20114;-75
2021/06/07 08:40:07;;;;;;;21.00;14.43;;;17.30;99.90;;;;;;4956338;28;20049;-68
2021/06/07 08:42:34;;;;;;;16.77;14.20;;;17.30;99.90;;;;;;4973436;28;20023;-69
2021/06/07 08:45:00;;;;;;;15.77;12.48;;;17.40;99.90;;;;;;4974013;28;20025;-69
2021/06/07 08:47:26;;;;;;;14.43;12.30;;;17.60;99.90;;;;;;4974113;28;20105;-74
2021/06/07 08:49:52;;;;;;;17.58;14.27;;;17.70;99.90;;;;;;4973636;28;20092;-74
2021/06/07 08:52:18;;;;;;;16.27;12.85;;;17.60;99.90;;;;;;4973994;28;20066;-75
2021/06/07 08:54:46;;;;;;;17.80;13.27;;;17.50;99.90;;;;;;4973847;28;20401;-73
2021/06/07 08:57:12;;;;;;;16.60;13.35;;;17.50;99.90;;;;;;4973755;28;20023;-71
2021/06/07 08:59:38;;;;;;;13.40;11.50;;;17.50;99.90;;;;;;4972671;28;20041;-72
2021/06/07 09:02:04;;;;;;;14.48;11.25;;;17.70;99.90;;;;;;4973359;28;20374;-76
2021/06/07 09:04:31;;;;;;;12.68;10.88;;;17.90;99.90;;;;;;4972328;28;20033;-74
2021/06/07 09:07:02;;;;;;;12.70;10.13;;;18.00;99.90;;;;;;4973442;28;20023;-74
2021/06/07 09:09:28;;;;;;;10.50;9.40;;;18.00;99.90;;;;;;4973385;28;20366;-74
2021/06/07 09:12:00;;;;;;;10.30;8.68;;;18.00;99.90;;;;;;4973445;28;20096;-74
2021/06/07 09:14:30;;;;;;;12.60;9.15;;;18.00;99.90;;;;;;4955665;28;20034;-73
2021/06/07 09:16:56;;;;;;;12.15;8.77;;;18.00;99.90;;;;;;4973188;28;20041;-72
2021/06/07 09:19:24;;;;;;;12.30;10.30;;;17.90;99.90;;;;;;4971151;28;20033;-74
2021/06/07 09:21:51;;;;;;;11.00;9.73;;;18.10;99.90;;;;;;4972963;28;20019;-74
2021/06/07 09:24:16;;;;;;;10.20;8.65;;;18.10;99.90;;;;;;4973396;28;20513;-74
2021/06/07 09:26:45;;;;;;;10.98;9.77;;;18.00;99.90;;;;;;4973488;28;20113;-73
2021/06/07 09:29:17;;;;;;;9.95;8.57;;;17.80;99.90;;;;;;4973619;28;20023;-74
2021/06/07 09:31:45;;;;;;;10.67;8.37;;;17.70;99.90;;;;;;4972805;28;20027;-74
2021/06/07 09:34:22;;;;;;;10.07;7.13;;;17.70;99.90;;;;;;4972911;28;20340;-74
2021/06/07 09:36:47;;;;;;;7.78;7.05;;;17.70;99.90;;;;;;4973700;28;20023;-73
2021/06/07 09:39:25;;;;;;;6.85;6.18;;;17.90;99.90;;;;;;4981950;28;20134;-75
2021/06/07 09:42:03;;;;;;;8.02;6.97;;;18.10;99.90;;;;;;4971907;28;20042;-72
2021/06/07 09:47:09;;;;;;;9.93;7.88;;;18.40;99.90;;;;;;4968840;28;20106;-71
2021/06/07 09:49:44;;;;;;;8.88;7.97;;;18.70;99.90;;;;;;4971955;28;20055;-71
2021/06/07 09:52:29;;;;;;;9.05;8.10;;;18.80;99.90;;;;;;4972678;28;20023;-70
2021/06/07 09:55:17;;;;;;;6.13;5.60;;;18.80;99.90;;;;;;4968621;28;20474;-71
2021/06/07 09:57:53;;;;;;;7.97;6.20;;;18.70;99.90;;;;;;4951822;28;20038;-73
2021/06/07 10:00:52;;;;;;;8.05;7.25;;;18.60;99.90;;;;;;4952065;29;20035;-72
2021/06/07 10:03:41;;;;;;;6.70;6.10;;;18.80;99.90;;;;;;4949871;29;20023;-71
2021/06/07 10:06:20;;;;;;;8.10;6.72;;;18.80;99.90;;;;;;4953092;28;20106;-71
2021/06/07 10:08:56;;;;;;;6.70;6.00;;;18.90;99.90;;;;;;4952886;28;20082;-72
2021/06/07 10:11:27;;;;;;;7.45;6.75;;;18.80;99.90;;;;;;4951113;29;20027;-71
2021/06/07 10:14:09;;;;;;;12.02;9.15;;;18.70;99.90;;;;;;4952797;29;20035;-71
2021/06/07 10:16:36;;;;;;;9.05;8.10;;;18.10;99.90;;;;;;4953121;28;20038;-71
2021/06/07 10:19:07;;;;;;;8.77;6.63;;;18.10;99.90;;;;;;4952885;28;20108;-72
2021/06/07 10:21:32;;;;;;;8.32;7.28;;;18.30;99.90;;;;;;4952352;29;20106;-72
2021/06/07 10:23:59;;;;;;;12.73;10.68;;;18.50;99.90;;;;;;4967553;28;20412;-71
2021/06/07 10:26:25;;;;;;;11.85;10.60;;;18.50;99.90;;;;;;4952825;28;20059;-71
2021/06/07 10:28:54;;;;;;;18.17;11.23;;;18.40;99.90;;;;;;4952817;28;20055;-73
2021/06/07 10:31:21;;;;;;;13.00;11.20;;;18.50;99.90;;;;;;4951817;28;20027;-71
2021/06/07 10:33:59;;;;;;;13.95;10.73;;;18.40;99.90;;;;;;4952432;29;20106;-71
2021/06/07 10:36:25;;;;;;;10.88;9.70;;;18.30;99.90;;;;;;4953028;28;20039;-71
2021/06/07 10:39:10;;;;;;;10.23;9.18;;;18.20;99.90;;;;;;4953041;28;20035;-71
2021/06/07 10:41:36;;;;;;;8.55;7.47;;;18.30;99.90;;;;;;4952122;28;20035;-71
2021/06/07 10:44:02;;;;;;;9.52;7.82;;;18.30;99.90;;;;;;4952515;28;20131;-73
2021/06/07 10:46:40;;;;;;;8.65;7.47;;;18.30;99.90;;;;;;4952134;28;20050;-73
2021/06/07 10:49:35;;;;;;;7.70;6.90;;;18.20;99.90;;;;;;4955052;28;20384;-74
2021/06/07 10:52:22;;;;;;;8.95;8.00;;;18.10;99.90;;;;;;4956230;28;20027;-73
2021/06/07 10:55:16;;;;;;;11.02;8.40;;;18.30;99.90;;;;;;4936641;29;20028;-73
2021/06/07 10:57:57;;;;;;;10.48;8.80;;;18.60;99.90;;;;;;4949026;29;20346;-77
2021/06/07 11:00:28;;;;;;;11.85;7.90;;;18.40;99.90;;;;;;4955259;28;20054;-75
2021/06/07 11:03:05;;;;;;;8.18;7.10;;;18.30;99.90;;;;;;4956160;29;20142;-73
2021/06/07 11:05:38;;;;;;;7.72;7.03;;;18.60;99.90;;;;;;4955682;28;20111;-74
2021/06/07 11:08:26;;;;;;;9.80;7.20;;;18.50;99.90;;;;;;4954931;29;20129;-75
2021/06/07 11:11:02;;;;;;;8.18;7.15;;;18.30;99.90;;;;;;4934589;29;20030;-76
2021/06/07 11:13:46;;;;;;;8.02;7.22;;;18.50;99.90;;;;;;4936658;29;20024;-73
2021/06/07 11:16:26;;;;;;;8.73;6.60;;;18.70;99.90;;;;;;4947473;29;20035;-73
2021/06/07 11:19:05;;;;;;;9.10;8.18;;;18.60;99.90;;;;;;4955794;29;20106;-73
2021/06/07 11:21:46;;;;;;;8.55;7.72;;;18.40;99.90;;;;;;4955241;29;20059;-71
2021/06/07 11:24:35;;;;;;;9.35;8.38;;;18.70;99.90;;;;;;4954552;29;20031;-74
2021/06/07 11:27:04;;;;;;;9.02;8.10;;;18.60;99.90;;;;;;4955808;29;20046;-74
2021/06/07 11:29:31;;;;;;;11.48;8.88;;;18.60;99.90;;;;;;4955497;29;20024;-71
2021/06/07 11:32:17;;;;;;;11.45;8.70;;;18.60;99.90;;;;;;4955173;29;20027;-74
2021/06/07 11:34:48;;;;;;;9.98;8.10;;;18.60;99.90;;;;;;4955225;28;20043;-74
2021/06/07 11:37:34;;;;;;;9.05;7.10;;;18.60;99.90;;;;;;4955653;29;20134;-74
2021/06/07 11:40:09;;;;;;;9.45;7.30;;;19.00;99.90;;;;;;4954771;29;20023;-71
2021/06/07 11:42:53;;;;;;;7.97;6.97;;;18.80;99.90;;;;;;4954251;29;20046;-72
2021/06/07 11:45:42;;;;;;;7.72;6.60;;;19.00;99.90;;;;;;4953960;28;20114;-73
2021/06/07 11:48:07;;;;;;;8.32;7.15;;;18.90;99.90;;;;;;4954356;29;20031;-72
2021/06/07 11:50:37;;;;;;;7.57;6.78;;;19.10;99.90;;;;;;4954745;29;20100;-70
2021/06/07 11:53:15;;;;;;;10.45;7.45;;;19.10;99.90;;;;;;4955084;28;20027;-70
2021/06/07 11:55:42;;;;;;;7.57;6.55;;;19.30;99.90;;;;;;4955102;28;20031;-72
2021/06/07 11:58:18;;;;;;;9.70;6.40;;;19.30;99.90;;;;;;4953909;29;20035;-71
2021/06/07 12:00:47;;;;;;;9.90;7.60;;;19.60;99.90;;;;;;4954413;28;20394;-73
2021/06/07 12:03:22;;;;;;;8.73;7.45;;;19.80;99.90;;;;;;4955019;28;20031;-71
2021/06/07 12:05:49;;;;;;;11.23;8.95;;;20.00;99.90;;;;;;4954781;28;20477;-70
2021/06/07 12:08:21;;;;;;;15.02;8.20;;;20.00;99.90;;;;;;4955153;28;20024;-71
2021/06/07 12:11:05;;;;;;;12.73;8.60;;;19.60;99.90;;;;;;4954217;28;20027;-71
2021/06/07 12:13:41;;;;;;;10.77;8.80;;;19.10;99.90;;;;;;4955090;29;20116;-71
2021/06/07 12:16:12;;;;;;;11.27;10.02;;;19.00;99.90;;;;;;4954668;29;20023;-71
2021/06/07 12:18:42;;;;;;;15.68;10.73;;;18.70;99.90;;;;;;4953335;29;20031;-70
2021/06/07 12:21:10;;;;;;;16.88;11.85;;;18.60;99.90;;;;;;4954222;29;20028;-70
2021/06/07 12:23:44;;;;;;;12.68;11.35;;;18.60;99.90;;;;;;4954489;29;20034;-70
2021/06/07 12:29:22;;;;;;;13.20;10.77;;;18.50;99.90;;;;;;4955200;29;20055;-70
2021/06/07 12:32:11;;;;;;;12.63;11.10;;;18.60;99.90;;;;;;4954302;29;20036;-71
2021/06/07 12:34:56;;;;;;;13.35;10.77;;;18.70;99.90;;;;;;4954619;28;20034;-70
2021/06/07 12:37:48;;;;;;;14.90;11.82;;;18.90;99.90;;;;;;4954352;29;20019;-70
2021/06/07 12:40:24;;;;;;;15.40;12.27;;;19.10;99.90;;;;;;4951139;29;20490;-71
2021/06/07 12:42:53;;;;;;;17.17;13.48;;;19.10;99.90;;;;;;4954178;29;20043;-70
2021/06/07 12:45:28;;;;;;;14.13;11.48;;;19.10;99.90;;;;;;4953734;28;20489;-70